Mansfield, OH (44901)

11:09 PM EST on February 07, 2016 (GMT -0500)
Lexington | | Change Station
CLOSE
Current Station
Personal Weather Station
Location: Mansfield, OH
Elevation: 1309 ft
Nearby Weather Stations

Elev 1309 ft 40.67 °N, 82.59 °W | Updated 0 second ago

Overcast
Overcast
43.7 °F
Feels Like 41 °F
N
4.5
Wind Variable Wind from SW
Gusts 7.4 mph

Today
High -- | Low -- °F
--% Chance of Precip.
Yesterday
High -- | Low -- °F
Precip. -- in
Pressure 29.79 in
Visibility 10.0 miles
Clouds Few 7000 ft
Overcast 9000 ft
Windchill 41 °F
Dew Point 22 °F
Humidity 42%
Rainfall 0.00 in
Snow Depth Not available.
7:34 AM 5:54 PM
Waning Crescent, 0% visible
METAR KMFD 080352Z 19010KT 10SM FEW070 OVC090 06/M05 A2977 RMK AO2 SLP086 T00611050
Pressure 29.79 in
Visibility 10.0 miles
Clouds Few 7000 ft
Overcast 9000 ft
Windchill 41 °F
Dew Point 22 °F
Humidity 42%
Rainfall 0.00 in
Snow Depth Not available.
7:34 AM 5:54 PM
Waning Crescent, 0% visible
METAR KMFD 080352Z 19010KT 10SM FEW070 OVC090 06/M05 A2977 RMK AO2 SLP086 T00611050

10-Day Weather Forecast

Almanac

Astronomy

Feb. 07, 2016 Rise Set
Actual Time
Civil Twilight
Nautical Twilight
Astronomical Twilight
Moon
Length of Visible Light
Length of Day
Tomorrow will be .
, % of the Moon is Illuminated

Today's Extremes

State Highs State Lows

Community

WunderPhotos

Upload Photos

1,891,378 photos uploaded!

WunderBlog® & News

Nearby

Air Quality

  Air Quality AQ Index Pollutant
Not available.

Snow Depth

Station Depth Elevation

Earthquake Activity

City Distance Mag. Time & Date
Minimum magnitude displayed is 2.5.

Coastal Water Temperatures

Place Temperature

Stations

Nearby Weather Stations

Station Location Temp. Windchill Dew Point Humidity Wind Precip. Elev Updated Type
                   

Watches & Warnings

There are currently no watches in effect.